Time;durP1;ratioP1;P1;durP2;ratioP2;P2;SDS_P1;SDS_P2;PMS_P1;PMS_P2;Temp;Humidity;BMP_temperature;BMP_pressure;BME280_temperature;BME280_humidity;BME280_pressure;Samples;Min_cycle;Max_cycle;Signal;HPM_P1;HPM_P2
2021/12/24 00:00:47;;;;;;;0.25;0.25;;;;;;;10.96;72.87;100505.56;5061055;28;20468;-82
2021/12/24 00:03:14;;;;;;;0.20;0.20;;;;;;;11.04;72.52;100513.28;5057028;28;20031;-82
2021/12/24 00:05:41;;;;;;;0.35;0.35;;;;;;;11.00;72.73;100508.09;5058760;28;20104;-83
2021/12/24 00:08:08;;;;;;;0.10;0.10;;;;;;;10.99;73.00;100501.03;5065653;28;20436;-81
2021/12/24 00:10:36;;;;;;;1.05;1.05;;;;;;;11.11;72.47;100501.63;5075596;28;20043;-82
2021/12/24 00:13:09;;;;;;;0.15;0.15;;;;;;;11.11;73.21;100504.25;5077997;28;20056;-81
2021/12/24 00:22:11;;;;;;;0.80;0.80;;;;;;;11.20;73.07;100501.34;5062135;27;20408;-82
2021/12/24 00:35:17;;;;;;;0.10;0.10;;;;;;;11.54;72.60;100492.44;5059082;28;20034;-83
2021/12/24 00:37:46;;;;;;;0.30;0.30;;;;;;;11.54;73.38;100492.44;5053378;28;20087;-83
2021/12/24 00:40:18;;;;;;;0.47;0.47;;;;;;;11.57;74.00;100494.97;5053437;28;20432;-83
2021/12/24 00:42:47;;;;;;;0.15;0.15;;;;;;;11.65;73.42;100492.97;5059629;28;20459;-81
2021/12/24 00:45:18;;;;;;;0.47;0.38;;;;;;;11.66;73.92;100491.19;5065967;28;20032;-84
2021/12/24 00:47:46;;;;;;;0.90;0.90;;;;;;;11.76;73.59;100492.66;5063830;28;20108;-83
2021/12/24 00:50:19;;;;;;;0.10;0.10;;;;;;;11.86;73.57;100492.34;5058727;28;20056;-82
2021/12/24 00:55:32;;;;;;;0.20;0.20;;;;;;;11.85;74.29;100506.53;5064141;28;20441;-83
2021/12/24 00:58:03;;;;;;;0.63;0.63;;;;;;;11.97;74.18;100490.28;5043090;28;20037;-82
2021/12/24 01:00:33;;;;;;;1.05;1.05;;;;;;;12.03;74.19;100500.69;5021906;28;20045;-83
2021/12/24 01:03:02;;;;;;;0.20;0.20;;;;;;;12.20;73.46;100497.50;5047976;28;20029;-83
2021/12/24 01:05:30;;;;;;;0.60;0.60;;;;;;;12.12;73.46;100500.41;5050562;28;20033;-83
2021/12/24 01:07:56;;;;;;;1.15;1.08;;;;;;;12.10;74.00;100488.09;5044841;28;20033;-84
2021/12/24 01:10:30;;;;;;;0.10;0.10;;;;;;;12.27;73.21;100492.84;5049888;28;20029;-84
2021/12/24 01:12:57;;;;;;;0.10;0.10;;;;;;;12.19;73.38;100500.22;5049725;28;20047;-83
2021/12/24 01:15:24;;;;;;;0.20;0.20;;;;;;;12.26;73.19;100488.47;5042120;28;20037;-84
2021/12/24 01:20:49;;;;;;;0.10;0.10;;;;;;;12.30;73.30;100492.78;5102146;27;20760;-81
2021/12/24 01:37:53;;;;;;;0.15;0.15;;;;;;;12.37;73.23;100498.75;5057583;28;20554;-82
2021/12/24 01:42:47;;;;;;;0.25;0.25;;;;;;;12.44;72.79;100489.66;5049876;28;20407;-81
2021/12/24 01:47:59;;;;;;;0.10;0.10;;;;;;;12.46;72.80;100487.78;5078566;27;20442;-81
2021/12/24 01:50:29;;;;;;;0.10;0.10;;;;;;;12.44;72.91;100489.66;5053849;28;20052;-82
2021/12/24 01:52:56;;;;;;;0.10;0.10;;;;;;;12.35;72.95;100503.22;5043794;28;20063;-80
2021/12/24 01:55:23;;;;;;;0.90;0.90;;;;;;;12.42;72.92;100486.16;5042185;28;20038;-81
2021/12/24 01:57:50;;;;;;;2.05;0.93;;;;;;;12.40;72.55;100493.31;5042972;28;20021;-80
2021/12/24 02:00:20;;;;;;;0.22;0.22;;;;;;;12.53;72.47;100489.31;5041576;28;20029;-80
2021/12/24 02:02:47;;;;;;;0.38;0.38;;;;;;;12.50;71.82;100488.56;5042228;28;20036;-80
2021/12/24 02:05:14;;;;;;;2.75;1.75;;;;;;;12.52;72.24;100503.53;5038630;28;20026;-82
2021/12/24 02:07:41;;;;;;;0.15;0.15;;;;;;;12.55;71.95;100497.28;5042666;28;20377;-82
2021/12/24 02:10:13;;;;;;;0.25;0.25;;;;;;;12.55;72.01;100498.13;5042289;28;20048;-81
2021/12/24 02:12:41;;;;;;;;;;;;;;;12.59;71.89;100494.44;5037928;28;20049;-82
2021/12/24 02:15:19;;;;;;;0.30;0.30;;;;;;;12.47;72.06;100500.16;5044868;28;20364;-82
2021/12/24 02:18:04;;;;;;;0.20;0.20;;;;;;;12.54;71.90;100501.69;5042508;28;20087;-80
2021/12/24 02:28:50;;;;;;;0.20;0.20;;;;;;;12.48;72.10;100496.59;5045370;28;20480;-82
2021/12/24 02:31:20;;;;;;;0.20;0.20;;;;;;;12.52;71.86;100498.22;5039958;28;20103;-81
2021/12/24 02:33:47;;;;;;;0.28;0.28;;;;;;;12.53;72.08;100497.31;5039809;28;20048;-82
2021/12/24 02:36:14;;;;;;;0.10;0.10;;;;;;;12.51;70.80;100496.50;5037589;28;20026;-82
2021/12/24 02:38:43;;;;;;;0.68;0.68;;;;;;;12.49;70.97;100492.16;5037686;28;20045;-81
2021/12/24 02:41:11;;;;;;;0.20;0.20;;;;;;;12.54;71.08;100488.41;5042524;28;20033;-81
2021/12/24 02:43:39;;;;;;;0.10;0.10;;;;;;;12.53;71.25;100493.78;5033942;28;20130;-82
2021/12/24 02:46:09;;;;;;;0.10;0.10;;;;;;;12.41;71.60;100501.25;5032728;28;20092;-82
2021/12/24 02:54:05;;;;;;;0.15;0.15;;;;;;;12.50;71.13;100488.56;5044370;28;20571;-81
2021/12/24 02:56:35;;;;;;;0.10;0.10;;;;;;;12.51;70.98;100495.63;5039891;28;20084;-82
2021/12/24 02:59:05;;;;;;;0.20;0.20;;;;;;;12.57;70.73;100490.09;5033692;28;20029;-83
2021/12/24 03:01:35;;;;;;;0.17;0.17;;;;;;;12.50;70.50;100485.91;5048323;28;20435;-81
2021/12/24 03:04:02;;;;;;;0.70;0.70;;;;;;;12.46;71.08;100491.34;5045690;28;20558;-81
2021/12/24 03:06:31;;;;;;;0.10;0.10;;;;;;;12.53;70.65;100489.31;5049745;28;20392;-81
2021/12/24 03:08:58;;;;;;;0.75;0.50;;;;;;;12.46;71.01;100488.69;5046812;28;20029;-84
2021/12/24 03:11:29;;;;;;;0.45;0.45;;;;;;;12.45;70.79;100488.75;5050940;28;20025;-85
2021/12/24 03:13:58;;;;;;;0.30;0.30;;;;;;;12.39;71.08;100492.47;5039009;28;20033;-84
2021/12/24 03:16:29;;;;;;;0.10;0.10;;;;;;;12.45;70.77;100489.59;5049687;28;20056;-84
2021/12/24 03:18:59;;;;;;;0.17;0.17;;;;;;;12.40;70.91;100491.53;5056657;28;20028;-83
2021/12/24 03:21:36;;;;;;;0.10;0.10;;;;;;;12.43;70.45;100493.22;5046021;28;20029;-84
2021/12/24 03:26:59;;;;;;;0.10;0.10;;;;;;;12.41;70.49;100489.75;5071195;27;20421;-84
2021/12/24 03:29:25;;;;;;;0.10;0.10;;;;;;;12.45;70.47;100494.91;5050126;28;20131;-84
2021/12/24 03:31:51;;;;;;;0.10;0.10;;;;;;;12.40;70.98;100499.50;5034085;28;20037;-83
2021/12/24 03:34:20;;;;;;;0.50;0.47;;;;;;;12.40;70.15;100494.19;5030943;28;20038;-84
2021/12/24 03:36:46;;;;;;;0.10;0.10;;;;;;;12.46;70.53;100493.09;5030670;28;20041;-84
2021/12/24 03:39:13;;;;;;;0.45;0.45;;;;;;;12.26;70.65;100492.00;5029038;28;20112;-82
2021/12/24 03:41:40;;;;;;;2.13;2.03;;;;;;;12.31;71.29;100483.84;5030180;28;20022;-84
2021/12/24 03:44:09;;;;;;;0.10;0.10;;;;;;;12.39;70.66;100496.91;5030916;28;20034;-84
2021/12/24 03:46:47;;;;;;;0.10;0.10;;;;;;;12.36;70.86;100499.66;5030914;28;20034;-84
2021/12/24 03:49:21;;;;;;;0.25;0.25;;;;;;;12.44;70.28;100494.97;5028168;28;20030;-84
2021/12/24 03:51:56;;;;;;;0.93;0.52;;;;;;;12.51;70.45;100495.63;5030209;28;20033;-84
2021/12/24 03:57:08;;;;;;;1.50;0.90;;;;;;;12.48;70.30;100483.31;5021337;28;20037;-83
2021/12/24 03:59:34;;;;;;;0.10;0.10;;;;;;;12.46;69.81;100487.78;5029944;28;20038;-84
2021/12/24 04:02:01;;;;;;;18.75;2.95;;;;;;;12.49;70.45;100487.72;5030194;28;20045;-84
2021/12/24 04:04:27;;;;;;;0.17;0.17;;;;;;;12.46;70.19;100488.69;5029204;28;20093;-84
2021/12/24 04:06:53;;;;;;;0.20;0.20;;;;;;;12.49;69.77;100497.47;5029527;28;20033;-83
2021/12/24 04:09:21;;;;;;;0.10;0.10;;;;;;;12.44;69.53;100495.81;5027337;28;20342;-83
2021/12/24 04:11:48;;;;;;;0.15;0.15;;;;;;;12.48;70.21;100499.25;5030217;28;20091;-83
2021/12/24 04:14:15;;;;;;;0.30;0.30;;;;;;;12.42;70.28;100492.38;5029779;28;20049;-84
2021/12/24 04:16:42;;;;;;;0.10;0.10;;;;;;;12.40;69.51;100501.28;5029511;28;20049;-82
2021/12/24 04:24:56;;;;;;;0.15;0.15;;;;;;;12.42;70.12;100489.72;5029556;28;20040;-82
2021/12/24 04:27:27;;;;;;;1.73;1.65;;;;;;;12.44;69.91;100498.47;5028344;28;20366;-84
2021/12/24 04:30:01;;;;;;;1.25;1.15;;;;;;;12.44;69.83;100497.63;5028723;28;20385;-82
2021/12/24 04:32:39;;;;;;;0.17;0.17;;;;;;;12.40;69.45;100501.28;5025401;28;20088;-84
2021/12/24 04:35:18;;;;;;;0.10;0.10;;;;;;;12.32;69.88;100492.72;5026933;28;20448;-82
2021/12/24 04:38:08;;;;;;;0.20;0.20;;;;;;;12.37;69.53;100501.41;5016122;28;20116;-83
2021/12/24 04:51:40;;;;;;;2.30;1.08;;;;;;;12.30;69.72;100484.81;5012654;28;20029;-83
2021/12/24 05:02:39;;;;;;;0.10;0.10;;;;;;;12.20;69.12;100488.66;5030895;28;20042;-84
2021/12/24 05:05:21;;;;;;;;;;;;;;;12.28;68.72;100487.47;5035032;28;20053;-83
2021/12/24 05:10:38;;;;;;;0.55;0.55;;;;;;;12.19;68.99;100490.47;5048536;28;20815;-85
2021/12/24 05:13:06;;;;;;;1.38;1.27;;;;;;;12.22;68.76;100484.19;5036089;28;20394;-85
2021/12/24 05:15:36;;;;;;;0.30;0.30;;;;;;;12.17;68.75;100481.66;5036719;28;20033;-82
2021/12/24 05:18:14;;;;;;;0.32;0.32;;;;;;;12.13;69.32;100490.66;5038536;28;20075;-85
2021/12/24 05:23:26;;;;;;;0.10;0.10;;;;;;;12.20;69.27;100500.16;5037010;28;20144;-84
2021/12/24 05:25:53;;;;;;;0.10;0.10;;;;;;;12.18;69.09;100494.03;5046053;28;20132;-81
2021/12/24 05:28:20;;;;;;;0.10;0.10;;;;;;;12.03;69.22;100500.69;5037115;28;20041;-83
2021/12/24 05:30:47;;;;;;;0.40;0.40;;;;;;;12.08;69.09;100498.75;5034309;28;20063;-83
2021/12/24 05:33:16;;;;;;;0.15;0.15;;;;;;;12.05;69.50;100503.28;5043066;28;20033;-84
2021/12/24 05:35:44;;;;;;;0.43;0.43;;;;;;;12.01;69.30;100506.97;5035224;28;20033;-85
2021/12/24 05:38:12;;;;;;;0.10;0.10;;;;;;;11.95;69.38;100508.88;5033889;28;20036;-83
2021/12/24 05:40:38;;;;;;;0.10;0.10;;;;;;;12.00;69.21;100510.53;5043070;28;20037;-84
2021/12/24 05:43:04;;;;;;;0.10;0.10;;;;;;;11.97;69.15;100509.75;5039003;28;20128;-85
2021/12/24 05:45:31;;;;;;;1.42;1.33;;;;;;;12.10;68.91;100509.31;5035397;28;20018;-85
2021/12/24 05:47:57;;;;;;;0.10;0.10;;;;;;;12.05;68.79;100521.88;5039662;28;20033;-85
2021/12/24 05:50:24;;;;;;;0.10;0.10;;;;;;;12.00;69.24;100515.84;5041090;28;20488;-85
2021/12/24 05:52:50;;;;;;;0.55;0.55;;;;;;;12.06;68.74;100515.66;5040803;28;20442;-85
2021/12/24 05:55:17;;;;;;;0.10;0.10;;;;;;;11.88;69.37;100509.97;5038369;28;20073;-82
2021/12/24 05:57:43;;;;;;;0.38;0.38;;;;;;;12.03;68.77;100505.16;5037244;28;20034;-84
2021/12/24 06:00:10;;;;;;;6.65;1.77;;;;;;;11.94;69.15;100509.78;5035218;28;20033;-84
2021/12/24 06:02:36;;;;;;;0.45;0.38;;;;;;;11.94;68.87;100506.28;5040145;28;20060;-84
2021/12/24 06:05:03;;;;;;;0.10;0.10;;;;;;;11.92;69.29;100508.09;5040393;28;20041;-82
2021/12/24 06:07:29;;;;;;;0.10;0.10;;;;;;;11.86;68.78;100506.50;5038249;28;20029;-84
2021/12/24 06:09:55;;;;;;;0.10;0.10;;;;;;;11.82;69.27;100519.00;5076256;28;20040;-83
2021/12/24 06:12:21;;;;;;;0.30;0.30;;;;;;;11.86;69.14;100517.09;5077315;28;20120;-83
2021/12/24 06:14:53;;;;;;;0.10;0.10;;;;;;;11.87;69.02;100516.19;5078285;28;20028;-83
2021/12/24 06:17:22;;;;;;;0.57;0.57;;;;;;;11.83;68.96;100514.56;5073888;28;20028;-83
2021/12/24 06:19:48;;;;;;;0.10;0.10;;;;;;;11.87;68.66;100510.03;5073384;28;20682;-82
2021/12/24 06:22:17;;;;;;;0.10;0.10;;;;;;;11.80;68.34;100517.28;5071068;28;20380;-84
2021/12/24 06:24:44;;;;;;;0.10;0.10;;;;;;;11.83;68.97;100509.25;5059445;28;20064;-83
2021/12/24 06:27:10;;;;;;;0.10;0.10;;;;;;;11.67;69.01;100513.28;5077098;28;20063;-83
2021/12/24 06:29:36;;;;;;;0.10;0.10;;;;;;;11.68;69.37;100507.06;5067129;28;20449;-83
2021/12/24 06:32:03;;;;;;;0.10;0.10;;;;;;;11.75;68.75;100506.84;5058785;28;20047;-85
2021/12/24 06:34:31;;;;;;;1.75;1.65;;;;;;;11.48;69.29;100508.53;5057156;28;20021;-81
2021/12/24 06:36:59;;;;;;;0.10;0.10;;;;;;;11.63;68.83;100523.13;5071209;28;20029;-84
2021/12/24 06:39:25;;;;;;;0.68;0.68;;;;;;;11.61;69.07;100504.59;5076605;28;20033;-82
2021/12/24 06:41:54;;;;;;;0.10;0.10;;;;;;;11.55;69.40;100511.84;5061584;28;20033;-82
2021/12/24 06:44:21;;;;;;;0.10;0.10;;;;;;;11.60;68.67;100515.25;5022500;28;20102;-83
2021/12/24 06:46:48;;;;;;;0.20;0.20;;;;;;;11.58;69.20;100506.47;5055645;28;20082;-81
2021/12/24 06:49:14;;;;;;;0.10;0.10;;;;;;;11.56;68.60;100505.66;5059212;28;20172;-81
2021/12/24 06:51:40;;;;;;;0.10;0.10;;;;;;;11.56;69.42;100506.50;5064376;28;20064;-80
2021/12/24 06:54:07;;;;;;;0.10;0.10;;;;;;;11.52;68.96;100504.00;5058533;28;20049;-81
2021/12/24 06:56:33;;;;;;;0.10;0.10;;;;;;;11.47;69.25;100512.94;5055857;28;20029;-82
2021/12/24 06:58:59;;;;;;;0.10;0.10;;;;;;;11.40;69.25;100513.19;5056728;28;20033;-82
2021/12/24 07:01:25;;;;;;;0.40;0.40;;;;;;;11.48;69.29;100508.53;5056132;28;20510;-83
2021/12/24 07:03:51;;;;;;;0.90;0.90;;;;;;;11.54;68.80;100512.78;5056585;28;20170;-82
2021/12/24 07:06:17;;;;;;;0.10;0.10;;;;;;;11.56;68.73;100511.81;5055791;28;20037;-79
2021/12/24 07:08:44;;;;;;;0.10;0.10;;;;;;;11.49;68.88;100523.53;5062432;28;20047;-85
2021/12/24 07:11:10;;;;;;;0.10;0.10;;;;;;;11.48;68.81;100527.09;5071870;28;20120;-82
2021/12/24 07:13:36;;;;;;;0.10;0.10;;;;;;;11.49;69.33;100524.41;5056411;28;20033;-84
2021/12/24 07:16:02;;;;;;;0.10;0.10;;;;;;;11.52;68.49;100520.78;5056031;28;20098;-84
2021/12/24 07:18:29;;;;;;;0.10;0.10;;;;;;;11.59;68.66;100506.44;5055886;28;20435;-81
2021/12/24 07:20:55;;;;;;;0.10;0.10;;;;;;;11.61;68.74;100504.59;5074546;28;20046;-83
2021/12/24 07:23:21;;;;;;;0.38;0.38;;;;;;;11.53;68.95;100501.28;5075384;28;20422;-84
2021/12/24 07:25:47;;;;;;;0.98;0.98;;;;;;;11.50;68.90;100501.38;5075559;28;20111;-84
2021/12/24 07:28:13;;;;;;;0.10;0.10;;;;;;;11.54;68.64;100512.78;5074596;28;20032;-83
2021/12/24 07:30:39;;;;;;;0.10;0.10;;;;;;;11.44;68.74;100501.56;5075579;28;20075;-82
2021/12/24 07:33:06;;;;;;;1.50;1.40;;;;;;;11.47;68.44;100520.03;5074140;28;20049;-81
2021/12/24 07:35:32;;;;;;;0.10;0.10;;;;;;;11.45;69.02;100514.78;5072869;28;20544;-81
2021/12/24 07:37:58;;;;;;;3.20;1.17;;;;;;;11.41;68.65;100517.56;5069955;28;20112;-80
2021/12/24 07:40:26;;;;;;;0.08;0.08;;;;;;;11.43;68.67;100515.75;5074710;28;20045;-83
2021/12/24 07:42:52;;;;;;;0.10;0.10;;;;;;;11.46;68.69;100518.31;5074611;28;20025;-84
2021/12/24 07:45:19;;;;;;;0.50;0.50;;;;;;;11.46;68.59;100518.31;5075498;28;20507;-84
2021/12/24 07:47:55;;;;;;;0.10;0.10;;;;;;;11.45;69.26;100516.56;5040283;28;20131;-84
2021/12/24 07:53:24;;;;;;;0.10;0.10;;;;;;;11.52;69.02;100510.16;5072218;27;20413;-84
2021/12/24 07:55:51;;;;;;;0.10;0.10;;;;;;;11.46;68.57;100518.31;5052346;28;20045;-84
2021/12/24 07:58:18;;;;;;;0.10;0.10;;;;;;;11.49;68.54;100515.56;5031656;28;20033;-83
2021/12/24 08:00:46;;;;;;;0.52;0.52;;;;;;;11.51;68.61;100521.69;5033145;28;20487;-82
2021/12/24 08:03:12;;;;;;;0.10;0.10;;;;;;;11.42;68.91;100520.16;5029646;28;20040;-82
2021/12/24 08:05:40;;;;;;;1.70;1.60;;;;;;;11.44;68.74;100525.44;5029992;28;20049;-82
2021/12/24 08:08:09;;;;;;;0.10;0.10;;;;;;;11.39;69.27;100519.38;5029557;28;20026;-82
2021/12/24 08:10:37;;;;;;;0.10;0.10;;;;;;;11.29;68.88;100526.72;5021126;28;20030;-83
2021/12/24 08:13:04;;;;;;;0.65;0.65;;;;;;;11.26;68.99;100522.38;5029026;28;20546;-83
2021/12/24 08:15:31;;;;;;;0.10;0.10;;;;;;;11.39;68.91;100524.69;5026943;28;20473;-82
2021/12/24 08:17:57;;;;;;;0.20;0.20;;;;;;;11.41;68.66;100528.19;5027417;28;20032;-82
2021/12/24 08:20:25;;;;;;;0.28;0.28;;;;;;;11.35;69.24;100523.06;5025808;28;20034;-83
2021/12/24 08:22:53;;;;;;;0.10;0.10;;;;;;;11.38;68.85;100517.69;5026961;28;20064;-81
2021/12/24 08:25:20;;;;;;;0.30;0.30;;;;;;;11.47;69.28;100522.69;5029698;28;20489;-81
2021/12/24 08:27:49;;;;;;;0.10;0.10;;;;;;;11.51;69.23;100523.47;5029579;28;20041;-80
2021/12/24 08:30:15;;;;;;;0.22;0.22;;;;;;;11.49;69.30;100516.44;5026087;28;20030;-82
2021/12/24 08:32:42;;;;;;;0.10;0.10;;;;;;;11.53;69.28;100521.66;5028209;28;20106;-80
2021/12/24 08:35:13;;;;;;;0.03;0.03;;;;;;;11.54;68.88;100515.41;5029329;28;20024;-83
2021/12/24 08:37:40;;;;;;;0.10;0.10;;;;;;;11.62;68.92;100508.13;5029820;28;20349;-83
2021/12/24 08:40:07;;;;;;;0.10;0.10;;;;;;;11.64;68.77;100509.81;5028945;28;20033;-82
2021/12/24 08:42:33;;;;;;;0.10;0.10;;;;;;;11.68;69.07;100520.34;5027825;28;20036;-82
2021/12/24 08:44:59;;;;;;;0.10;0.10;;;;;;;11.73;68.51;100526.38;5029082;28;20105;-83
2021/12/24 08:47:25;;;;;;;0.10;0.10;;;;;;;11.73;68.51;100529.03;5029355;28;20030;-83
2021/12/24 08:49:51;;;;;;;0.10;0.10;;;;;;;11.79;68.43;100519.09;5028315;28;20370;-83
2021/12/24 08:52:17;;;;;;;0.10;0.10;;;;;;;11.63;68.52;100518.69;5029702;28;20038;-83
2021/12/24 08:54:44;;;;;;;0.55;0.55;;;;;;;11.81;68.52;100516.38;5031735;28;20052;-83
2021/12/24 08:57:10;;;;;;;0.10;0.10;;;;;;;11.82;68.43;100518.13;5025785;28;20481;-82
2021/12/24 08:59:36;;;;;;;0.35;0.35;;;;;;;11.86;68.10;100521.56;5026701;28;20042;-82
2021/12/24 09:02:03;;;;;;;0.38;0.38;;;;;;;11.87;68.44;100523.31;5023777;28;20030;-83
2021/12/24 09:04:31;;;;;;;0.10;0.10;;;;;;;11.80;68.09;100519.94;5014862;28;20481;-83
2021/12/24 09:06:57;;;;;;;0.10;0.10;;;;;;;11.87;68.67;100526.81;5020694;28;20503;-82
2021/12/24 09:09:24;;;;;;;0.00;0.00;;;;;;;11.77;68.44;100520.06;5026528;28;20038;-82
2021/12/24 09:11:50;;;;;;;0.10;0.10;;;;;;;11.85;68.40;100518.06;5021678;28;20119;-83
2021/12/24 09:14:18;;;;;;;0.10;0.10;;;;;;;11.92;68.46;100514.25;5022117;28;20037;-82
2021/12/24 09:16:47;;;;;;;0.40;0.40;;;;;;;11.84;68.27;100507.44;5016431;28;20088;-82
2021/12/24 09:19:18;;;;;;;1.23;1.15;;;;;;;11.90;68.11;100513.47;5013284;28;20030;-84
2021/12/24 09:21:45;;;;;;;0.13;0.13;;;;;;;11.80;68.24;100506.69;5019320;28;20413;-82
2021/12/24 09:24:11;;;;;;;2.38;2.28;;;;;;;11.84;68.34;100513.66;5013494;28;20464;-81
2021/12/24 09:26:38;;;;;;;0.60;0.60;;;;;;;11.90;67.86;100510.81;5012877;28;20936;-83
2021/12/24 09:29:08;;;;;;;0.10;0.10;;;;;;;11.92;68.49;100514.25;5012757;28;20026;-83
2021/12/24 09:31:34;;;;;;;0.10;0.10;;;;;;;11.98;67.97;100510.59;5006088;28;20040;-81
2021/12/24 09:34:01;;;;;;;0.10;0.10;;;;;;;11.96;68.00;100518.63;5015508;28;20034;-81
2021/12/24 09:36:28;;;;;;;2.35;2.25;;;;;;;12.01;68.25;100517.59;5015565;28;20026;-84
2021/12/24 09:39:01;;;;;;;0.20;0.20;;;;;;;12.12;67.66;100510.16;5014106;28;20033;-83
2021/12/24 09:41:27;;;;;;;2.10;1.30;;;;;;;12.10;67.63;100512.88;5012665;28;20037;-83
2021/12/24 09:43:56;;;;;;;1.35;0.80;;;;;;;12.16;67.44;100509.13;5013795;28;20033;-83
2021/12/24 09:46:22;;;;;;;0.40;0.40;;;;;;;12.11;67.48;100514.63;5018324;28;20026;-83
2021/12/24 09:48:48;;;;;;;0.10;0.10;;;;;;;12.03;67.06;100495.38;5014327;28;20022;-82
2021/12/24 09:51:15;;;;;;;0.10;0.10;;;;;;;12.11;67.14;100519.03;5014235;28;20167;-84
2021/12/24 09:53:41;;;;;;;0.10;0.10;;;;;;;12.03;67.20;100510.47;5014273;28;20030;-83
2021/12/24 09:56:08;;;;;;;0.10;0.10;;;;;;;12.01;67.62;100512.28;4999789;28;20037;-83
2021/12/24 09:58:34;;;;;;;0.10;0.10;;;;;;;12.12;67.14;100511.03;5014692;28;20038;-82
2021/12/24 10:01:01;;;;;;;0.10;0.10;;;;;;;11.95;67.79;100508.88;5013598;28;20521;-83
2021/12/24 10:03:32;;;;;;;1.67;1.58;;;;;;;12.05;67.60;100511.25;5017083;28;20036;-84
2021/12/24 10:05:59;;;;;;;0.10;0.10;;;;;;;12.07;67.58;100509.44;5011249;28;20033;-82
2021/12/24 10:08:27;;;;;;;0.10;0.10;;;;;;;12.04;66.96;100514.88;5010772;28;20061;-83
2021/12/24 10:11:01;;;;;;;0.10;0.10;;;;;;;12.03;67.59;100510.47;5018025;28;20041;-83
2021/12/24 10:13:38;;;;;;;0.63;0.63;;;;;;;12.03;67.36;100515.78;5018045;28;20048;-84
2021/12/24 10:16:17;;;;;;;0.85;0.85;;;;;;;12.07;67.20;100509.44;5008966;28;20006;-84
2021/12/24 10:21:30;;;;;;;0.10;0.10;;;;;;;12.02;67.07;100514.88;5062825;27;20426;-83
2021/12/24 10:26:55;;;;;;;0.60;0.60;;;;;;;12.18;66.88;100504.66;5146692;27;20668;-82
2021/12/24 10:29:43;;;;;;;0.75;0.50;;;;;;;12.04;66.97;100509.56;5148819;27;20031;-83
2021/12/24 23:53:36;;;;;;;2.85;0.90;;;;;;;9.15;68.57;100665.66;5061111;28;20887;-85
2021/12/24 23:56:07;;;;;;;0.20;0.20;;;;;;;9.10;68.27;100668.34;5052080;28;20025;-83
2021/12/24 23:58:36;;;;;;;0.47;0.47;;;;;;;9.03;68.24;100664.97;5049435;28;20025;-81
